Time;durP1;ratioP1;P1;durP2;ratioP2;P2;SDS_P1;SDS_P2;PMS_P1;PMS_P2;Temp;Humidity;BMP_temperature;BMP_pressure;BME280_temperature;BME280_humidity;BME280_pressure;Samples;Min_cycle;Max_cycle;Signal;HPM_P1;HPM_P2
2021/01/11 00:01:28;;;;;;;33.87;19.17;;;;;;;-2.57;80.83;101338.19;5042786;28;20099;-72
2021/01/11 00:03:53;;;;;;;32.00;18.50;;;;;;;-2.55;80.46;101339.19;5040921;28;20163;-72
2021/01/11 00:06:18;;;;;;;36.33;18.90;;;;;;;-2.52;80.13;101345.41;5040492;28;20037;-72
2021/01/11 00:08:45;;;;;;;34.87;19.33;;;;;;;-2.49;80.08;101339.53;5039668;28;20041;-72
2021/01/11 00:11:12;;;;;;;35.60;19.60;;;;;;;-2.49;80.11;101344.69;5042709;28;20108;-71
2021/01/11 00:13:37;;;;;;;33.40;19.73;;;;;;;-2.49;80.66;101339.53;5042321;28;20060;-71
2021/01/11 00:16:02;;;;;;;38.37;20.73;;;;;;;-2.47;80.55;101343.09;5038476;28;20092;-71
2021/01/11 00:18:28;;;;;;;34.77;19.13;;;;;;;-2.47;79.59;101336.25;5039189;28;20057;-72
2021/01/11 00:20:53;;;;;;;35.10;18.80;;;;;;;-2.45;79.49;101337.22;5040919;28;20591;-72
2021/01/11 00:23:18;;;;;;;34.33;19.63;;;;;;;-2.45;80.44;101334.63;5042307;28;20496;-71
2021/01/11 00:25:43;;;;;;;34.47;19.17;;;;;;;-2.43;80.38;101330.47;5042408;28;20056;-72
2021/01/11 00:28:09;;;;;;;31.73;19.27;;;;;;;-2.40;79.95;101337.50;5039046;28;20042;-71
2021/01/11 00:30:34;;;;;;;30.60;17.90;;;;;;;-2.34;79.39;101334.38;5039164;28;20045;-72
2021/01/11 00:32:59;;;;;;;34.77;19.03;;;;;;;-2.34;79.42;101327.50;5044086;28;20045;-72
2021/01/11 00:35:25;;;;;;;30.97;17.13;;;;;;;-2.32;79.76;101331.09;5045031;28;20041;-72
2021/01/11 00:37:50;;;;;;;33.30;18.30;;;;;;;-2.32;79.61;101330.19;5045145;28;20067;-72
2021/01/11 00:40:15;;;;;;;33.00;17.97;;;;;;;-2.30;79.08;101328.59;5041864;28;20042;-72
2021/01/11 00:42:41;;;;;;;31.03;18.23;;;;;;;-2.28;79.20;101322.72;5042707;28;20033;-73
2021/01/11 00:45:08;;;;;;;32.33;18.43;;;;;;;-2.29;79.22;101320.91;5031498;28;20028;-72
2021/01/11 00:47:38;;;;;;;29.97;17.43;;;;;;;-2.27;79.32;101321.91;5037416;28;20029;-72
2021/01/11 00:50:04;;;;;;;34.67;18.63;;;;;;;-2.29;79.12;101318.34;5043076;28;20060;-72
2021/01/11 00:52:36;;;;;;;32.43;17.77;;;;;;;-2.30;79.75;101326.91;5041208;28;20044;-72
2021/01/11 00:55:04;;;;;;;32.77;18.70;;;;;;;-2.37;79.57;101323.88;5045390;28;20091;-72
2021/01/11 00:57:29;;;;;;;35.10;19.13;;;;;;;-2.32;79.64;101322.44;5044585;28;20518;-72
2021/01/11 01:00:05;;;;;;;31.20;17.67;;;;;;;-2.36;79.31;101321.34;5042093;28;20115;-72
2021/01/11 01:02:45;;;;;;;31.03;17.30;;;;;;;-2.39;80.19;101326.34;5042841;28;20060;-72
2021/01/11 01:05:11;;;;;;;30.70;17.40;;;;;;;-2.38;79.87;101330.75;5045907;28;20472;-72
2021/01/11 01:07:41;;;;;;;30.67;16.83;;;;;;;-2.38;79.46;101332.41;5045940;28;20041;-72
2021/01/11 01:10:07;;;;;;;34.10;18.20;;;;;;;-2.39;80.16;101331.53;5042369;28;20077;-72
2021/01/11 01:12:33;;;;;;;32.13;17.83;;;;;;;-2.38;79.35;101341.09;5042031;28;20407;-73
2021/01/11 01:14:58;;;;;;;28.40;16.07;;;;;;;-2.37;79.28;101329.03;5044519;28;20040;-72
2021/01/11 01:17:24;;;;;;;31.67;17.47;;;;;;;-2.36;79.26;101338.56;5045721;28;20025;-72
2021/01/11 01:19:49;;;;;;;31.10;16.93;;;;;;;-2.34;79.42;101339.56;5044621;28;20037;-72
2021/01/11 01:22:14;;;;;;;30.63;17.60;;;;;;;-2.36;79.66;101342.03;5041963;28;20037;-72
2021/01/11 01:24:40;;;;;;;29.97;18.33;;;;;;;-2.44;79.34;101343.28;5042074;28;20083;-72
2021/01/11 01:27:05;;;;;;;33.87;19.43;;;;;;;-2.47;79.63;101343.09;5045277;28;20126;-72
2021/01/11 01:29:30;;;;;;;29.60;15.70;;;;;;;-2.50;79.51;101337.75;5045495;28;20040;-72
2021/01/11 01:31:56;;;;;;;34.70;18.30;;;;;;;-2.55;79.25;101331.44;5043427;28;20036;-72
2021/01/11 01:34:21;;;;;;;29.57;17.57;;;;;;;-2.63;79.81;101327.50;5041714;28;20041;-72
2021/01/11 01:36:46;;;;;;;27.93;16.50;;;;;;;-2.70;79.71;101309.06;5042617;28;20478;-72
2021/01/11 01:39:12;;;;;;;28.50;15.17;;;;;;;-2.78;79.91;101309.38;5045187;28;20099;-72
2021/01/11 01:41:37;;;;;;;32.80;18.60;;;;;;;-2.88;79.91;101300.22;5044024;28;20040;-72
2021/01/11 01:44:03;;;;;;;32.27;17.50;;;;;;;-2.96;80.57;101302.31;5041002;28;20053;-72
2021/01/11 01:46:31;;;;;;;30.73;17.00;;;;;;;-3.03;80.45;101296.69;5041738;28;20041;-72
2021/01/11 01:48:59;;;;;;;29.67;16.10;;;;;;;-3.06;81.29;101293.94;5043751;28;20060;-72
2021/01/11 01:51:25;;;;;;;28.97;16.90;;;;;;;-3.14;80.72;101291.75;5044981;28;20541;-72
2021/01/11 01:53:50;;;;;;;34.00;19.47;;;;;;;-3.14;81.11;101296.94;5043613;28;20040;-71
2021/01/11 01:56:16;;;;;;;32.43;17.73;;;;;;;-3.16;81.26;101301.09;5041574;28;20029;-71
2021/01/11 01:58:41;;;;;;;28.53;16.13;;;;;;;-3.20;81.19;101303.41;5041529;28;20129;-72
2021/01/11 02:01:07;;;;;;;28.83;15.63;;;;;;;-3.21;81.57;101299.94;5033314;28;20029;-72
2021/01/11 02:03:32;;;;;;;28.77;16.37;;;;;;;-3.22;81.55;101304.97;5041187;28;20044;-72
2021/01/11 02:05:57;;;;;;;28.83;16.43;;;;;;;-3.20;81.05;101303.41;5042382;28;20033;-73
2021/01/11 02:08:34;;;;;;;30.07;16.23;;;;;;;-3.19;80.87;101303.50;5044637;28;20037;-73
2021/01/11 02:11:12;;;;;;;32.77;16.43;;;;;;;-3.20;80.83;101304.28;5042343;28;20091;-72
2021/01/11 02:14:33;;;;;;;26.23;15.57;;;;;;;-3.20;81.59;101306.84;5039700;28;20033;-72
2021/01/11 02:17:13;;;;;;;29.10;16.33;;;;;;;-3.19;81.26;101313.81;4968876;28;20054;-72
2021/01/11 02:19:56;;;;;;;32.33;17.80;;;;;;;-3.18;81.44;101317.28;5037376;28;20033;-73
2021/01/11 02:22:45;;;;;;;29.27;15.33;;;;;;;-3.20;80.70;101309.44;5034800;28;20131;-72
2021/01/11 02:25:38;;;;;;;28.70;16.07;;;;;;;-3.25;81.04;101318.59;5033330;28;20108;-72
2021/01/11 02:28:08;;;;;;;;;;;;;;;-3.25;81.58;101322.88;5043146;28;20044;-72
2021/01/11 02:30:35;;;;;;;25.77;14.10;;;;;;;-3.26;81.60;101324.56;5044428;28;19920;-72
2021/01/11 02:33:14;;;;;;;29.73;16.00;;;;;;;-3.31;80.81;101321.69;5041425;28;20499;-72
2021/01/11 02:35:48;;;;;;;27.53;15.67;;;;;;;-3.34;81.47;101320.63;5040913;28;20053;-72
2021/01/11 02:38:20;;;;;;;24.57;14.03;;;;;;;-3.42;81.61;101317.56;5028939;28;20076;-72
2021/01/11 02:40:45;;;;;;;26.50;15.25;;;;;;;-3.43;81.16;101313.22;5037941;28;20116;-72
2021/01/11 02:43:12;;;;;;;28.30;14.53;;;;;;;-3.43;81.58;101314.88;5036000;28;20035;-72
2021/01/11 02:45:37;;;;;;;30.47;15.53;;;;;;;-3.41;81.00;101318.44;5040602;28;20484;-72
2021/01/11 02:48:12;;;;;;;27.23;15.43;;;;;;;-3.41;81.08;101316.75;5043447;28;20047;-72
2021/01/11 02:50:54;;;;;;;25.43;14.83;;;;;;;-3.46;81.22;101315.56;5044045;28;20535;-73
2021/01/11 02:53:43;;;;;;;28.70;15.20;;;;;;;-3.48;81.51;101305.94;5033853;28;20167;-72
2021/01/11 02:56:13;;;;;;;26.00;14.93;;;;;;;-3.50;81.21;101304.97;5032410;28;20041;-72
2021/01/11 02:58:54;;;;;;;29.77;15.63;;;;;;;-3.54;80.95;101304.78;5040612;28;20041;-72
2021/01/11 03:01:21;;;;;;;26.53;14.63;;;;;;;-3.57;80.77;101302.00;5033883;28;20496;-72
2021/01/11 03:03:49;;;;;;;23.93;13.70;;;;;;;-3.60;81.00;101299.22;5040629;28;20037;-72
2021/01/11 03:06:15;;;;;;;27.77;15.20;;;;;;;-3.63;80.73;101304.19;5043650;28;20037;-72
2021/01/11 03:08:40;;;;;;;25.17;13.97;;;;;;;-3.69;80.41;101298.66;5043576;28;20040;-72
2021/01/11 03:11:05;;;;;;;26.87;14.57;;;;;;;-3.73;81.45;101304.41;5040344;28;20095;-72
2021/01/11 03:13:31;;;;;;;26.43;14.13;;;;;;;-3.78;81.17;101293.78;5039740;28;20054;-73
2021/01/11 03:15:56;;;;;;;26.50;14.40;;;;;;;-3.79;80.81;101293.72;5042056;28;20373;-72
2021/01/11 03:18:22;;;;;;;27.13;14.60;;;;;;;-3.84;80.67;101282.22;5043503;28;20395;-72
2021/01/11 03:20:47;;;;;;;25.43;14.17;;;;;;;-3.85;80.69;101285.56;5042664;28;20404;-72
2021/01/11 03:23:15;;;;;;;25.67;13.40;;;;;;;-3.87;81.39;101276.88;5039615;28;20048;-72
2021/01/11 03:25:41;;;;;;;24.70;14.17;;;;;;;-3.87;81.06;101275.16;5039951;28;20488;-73
2021/01/11 03:28:06;;;;;;;28.10;13.77;;;;;;;-3.87;81.48;101269.13;5043074;28;20057;-72
2021/01/11 03:30:31;;;;;;;25.33;13.63;;;;;;;-3.89;80.84;101270.72;5043556;28;20037;-72
2021/01/11 03:32:57;;;;;;;29.30;15.47;;;;;;;-3.91;80.88;101267.13;5040957;28;20025;-72
2021/01/11 03:35:22;;;;;;;25.57;14.10;;;;;;;-3.92;81.39;101257.63;5038653;28;20230;-72
2021/01/11 03:37:47;;;;;;;26.53;13.87;;;;;;;-3.96;81.42;101253.94;5040259;28;20045;-72
2021/01/11 03:40:13;;;;;;;25.73;13.53;;;;;;;-3.94;81.68;101257.50;5043264;28;20040;-72
2021/01/11 03:42:39;;;;;;;23.20;12.57;;;;;;;-3.92;80.57;101257.63;5042764;28;20146;-72
2021/01/11 03:45:09;;;;;;;25.57;13.33;;;;;;;-3.92;81.33;101248.19;5039964;28;20056;-72
2021/01/11 03:47:35;;;;;;;22.43;12.63;;;;;;;-3.91;81.73;101242.22;5039493;28;20040;-72
2021/01/11 03:50:02;;;;;;;25.00;14.03;;;;;;;-3.87;80.69;101243.34;5042359;28;20029;-72
2021/01/11 03:52:27;;;;;;;24.70;13.40;;;;;;;-3.89;80.88;101234.59;5042526;28;20040;-72
2021/01/11 03:54:52;;;;;;;20.07;12.10;;;;;;;-3.87;81.49;101238.19;5041391;28;20115;-72
2021/01/11 03:57:18;;;;;;;24.20;12.60;;;;;;;-3.87;81.09;101243.34;5039480;28;20038;-72
2021/01/11 03:59:44;;;;;;;23.27;13.30;;;;;;;-3.86;80.95;101239.94;5039504;28;20069;-72
2021/01/11 04:02:09;;;;;;;23.60;12.93;;;;;;;-3.81;81.34;101233.41;5042435;28;20120;-72
2021/01/11 04:04:35;;;;;;;26.20;14.50;;;;;;;-3.77;80.67;101230.22;5041329;28;20090;-72
2021/01/11 04:07:00;;;;;;;20.97;12.10;;;;;;;-3.77;80.73;101222.50;5040470;28;20033;-72
2021/01/11 04:09:25;;;;;;;24.30;13.67;;;;;;;-3.72;81.02;101222.75;5045091;28;20120;-72
2021/01/11 04:11:51;;;;;;;23.33;12.90;;;;;;;-3.73;81.05;101221.88;5039216;28;20124;-72
2021/01/11 04:14:18;;;;;;;19.70;11.90;;;;;;;-3.71;80.24;101230.59;5042515;28;20064;-72
2021/01/11 04:16:44;;;;;;;24.00;12.43;;;;;;;-3.71;79.91;101229.72;5042502;28;20033;-72
2021/01/11 04:19:10;;;;;;;21.33;12.37;;;;;;;-3.66;80.00;101229.19;5038058;28;20561;-72
2021/01/11 04:21:36;;;;;;;25.00;12.93;;;;;;;-3.65;80.16;101225.81;5039036;28;20083;-72
2021/01/11 04:24:01;;;;;;;21.53;12.40;;;;;;;-3.62;80.14;101222.53;5041533;28;20042;-72
2021/01/11 04:26:26;;;;;;;21.20;12.20;;;;;;;-3.60;79.71;101224.41;5042443;28;20067;-72
2021/01/11 04:28:52;;;;;;;22.47;13.17;;;;;;;-3.55;79.66;101217.84;5041270;28;20115;-72
2021/01/11 04:31:17;;;;;;;22.67;13.00;;;;;;;-3.49;79.80;101222.47;5039051;28;20136;-72
2021/01/11 04:33:42;;;;;;;24.07;12.77;;;;;;;-3.43;80.05;101217.72;5038760;28;20116;-72
2021/01/11 04:36:08;;;;;;;25.90;13.33;;;;;;;-3.34;79.63;101222.53;5042489;28;20072;-72
2021/01/11 04:38:33;;;;;;;27.23;14.10;;;;;;;-3.34;78.95;101218.25;5042280;28;20080;-72
2021/01/11 04:41:02;;;;;;;24.63;12.20;;;;;;;-3.21;79.17;101219.88;5040225;28;20083;-72
2021/01/11 04:43:30;;;;;;;22.27;11.97;;;;;;;-3.11;77.97;101211.91;5029507;28;20184;-72
2021/01/11 04:45:58;;;;;;;24.50;13.47;;;;;;;-3.00;78.04;101214.22;5040448;28;20510;-72
2021/01/11 04:48:23;;;;;;;29.40;14.47;;;;;;;-2.96;77.87;101205.84;5039003;28;20065;-72
2021/01/11 04:50:48;;;;;;;24.97;13.27;;;;;;;-2.81;78.35;101211.03;5039817;28;20487;-72
2021/01/11 04:53:17;;;;;;;22.40;12.27;;;;;;;-2.71;77.12;101203.91;5042090;28;20041;-73
2021/01/11 04:55:44;;;;;;;23.80;12.47;;;;;;;-2.63;77.40;101204.34;5042444;28;20091;-73
2021/01/11 04:58:11;;;;;;;19.73;11.00;;;;;;;-2.50;77.20;101209.41;5030970;28;20041;-72
2021/01/11 05:00:38;;;;;;;19.57;11.00;;;;;;;-2.38;77.32;101209.22;5038943;28;20069;-72
2021/01/11 05:03:09;;;;;;;20.20;10.67;;;;;;;-2.35;75.98;101209.41;5041325;28;20496;-72
2021/01/11 05:05:45;;;;;;;19.70;11.87;;;;;;;-2.35;76.22;101208.50;5040955;28;20067;-72
2021/01/11 05:08:10;;;;;;;18.50;10.40;;;;;;;-2.32;75.96;101203.50;5031142;28;20037;-72
2021/01/11 05:10:38;;;;;;;17.90;10.37;;;;;;;-2.29;75.71;101207.16;5038670;28;20442;-72
2021/01/11 05:13:08;;;;;;;20.67;10.27;;;;;;;-2.26;75.82;101193.50;5041351;28;20041;-72
2021/01/11 05:15:38;;;;;;;19.67;10.23;;;;;;;-2.20;76.04;101193.88;5042153;28;20029;-72
2021/01/11 05:18:17;;;;;;;18.33;10.27;;;;;;;-2.12;75.98;101196.84;5039251;28;20547;-72
2021/01/11 05:20:42;;;;;;;19.93;10.43;;;;;;;-2.06;76.10;101197.22;5042115;28;20041;-73
2021/01/11 05:23:12;;;;;;;19.00;10.37;;;;;;;-1.96;75.42;101189.16;5033812;28;20025;-72
2021/01/11 05:25:39;;;;;;;21.17;10.63;;;;;;;-1.92;74.98;101192.78;5042225;28;20459;-72
2021/01/11 05:28:16;;;;;;;19.13;11.03;;;;;;;-1.84;74.33;101189.78;5045098;28;20076;-70
2021/01/11 05:30:48;;;;;;;17.43;11.33;;;;;;;-1.80;74.14;101181.41;5045509;28;20097;-70
2021/01/11 05:33:17;;;;;;;15.95;9.27;;;;;;;-1.81;74.35;101184.81;5034589;28;20044;-70
2021/01/11 05:35:43;;;;;;;17.20;9.77;;;;;;;-1.76;74.80;101185.03;5041921;28;20517;-70
2021/01/11 05:38:15;;;;;;;17.60;10.63;;;;;;;-1.72;73.96;101183.53;5045211;28;20120;-70
2021/01/11 05:40:41;;;;;;;17.20;10.07;;;;;;;-1.77;73.84;101170.34;5045327;28;20093;-71
2021/01/11 05:43:06;;;;;;;17.30;10.17;;;;;;;-1.72;74.04;101175.75;5041735;28;20033;-70
2021/01/11 05:45:35;;;;;;;15.30;9.53;;;;;;;-1.75;73.61;101179.06;5041823;28;20570;-70
2021/01/11 05:48:08;;;;;;;16.33;8.97;;;;;;;-1.74;73.41;101179.97;5044135;28;20040;-70
2021/01/11 05:50:42;;;;;;;19.13;10.63;;;;;;;-1.74;74.13;101177.38;5045126;28;20029;-70
2021/01/11 05:53:16;;;;;;;16.87;10.00;;;;;;;-1.70;74.06;101179.28;5041302;28;20033;-70
2021/01/11 05:55:42;;;;;;;15.43;9.77;;;;;;;-1.69;73.41;101168.16;5041649;28;20164;-71
2021/01/11 05:58:08;;;;;;;17.50;10.10;;;;;;;-1.72;73.11;101168.88;5031837;28;20535;-70
2021/01/11 06:00:36;;;;;;;14.90;8.90;;;;;;;-1.74;73.60;101169.59;5040174;28;20045;-70
2021/01/11 06:03:03;;;;;;;15.20;9.67;;;;;;;-1.74;73.54;101174.78;5043723;28;20029;-71
2021/01/11 06:05:30;;;;;;;17.23;9.90;;;;;;;-1.72;73.16;101178.34;5043523;28;20124;-71
2021/01/11 06:07:57;;;;;;;15.83;9.60;;;;;;;-1.64;73.58;101174.47;5043082;28;20075;-70
2021/01/11 06:10:23;;;;;;;17.30;9.87;;;;;;;-1.60;73.25;101173.81;5044808;28;20125;-70
2021/01/11 06:12:49;;;;;;;16.77;9.60;;;;;;;-1.57;72.98;101174.00;5034435;28;20037;-70
2021/01/11 06:15:17;;;;;;;17.10;9.93;;;;;;;-1.58;72.80;101177.38;5033956;28;20499;-70
2021/01/11 06:17:45;;;;;;;15.47;8.63;;;;;;;-1.60;73.04;101173.81;5041345;28;20434;-70
2021/01/11 06:20:16;;;;;;;16.90;10.27;;;;;;;-1.63;73.11;101179.72;5041191;28;20219;-70
2021/01/11 06:22:44;;;;;;;15.63;9.47;;;;;;;-1.61;72.73;101177.22;5040876;28;20037;-71
2021/01/11 06:25:21;;;;;;;16.03;9.60;;;;;;;-1.61;73.36;101178.09;5032989;28;20069;-70
2021/01/11 06:27:53;;;;;;;14.63;8.20;;;;;;;-1.55;73.29;101181.03;5041353;28;20041;-70
2021/01/11 06:30:34;;;;;;;14.95;9.10;;;;;;;-1.60;73.00;101176.41;5043934;28;20034;-70
2021/01/11 06:33:06;;;;;;;15.00;8.87;;;;;;;-1.58;72.48;101179.97;5028843;28;20041;-70
2021/01/11 06:35:42;;;;;;;;;;;;;;;-1.58;72.38;101178.25;5041278;28;20111;-70
2021/01/11 06:38:25;;;;;;;16.27;8.43;;;;;;;-1.53;71.65;101183.69;5027647;28;19974;-70
2021/01/11 06:41:03;;;;;;;17.93;8.60;;;;;;;-1.49;72.54;101190.81;5027799;28;20400;-70
2021/01/11 06:43:42;;;;;;;14.13;8.40;;;;;;;-1.42;72.40;101186.84;5038114;28;20038;-71
2021/01/11 06:46:10;;;;;;;17.13;9.37;;;;;;;-1.38;72.29;101186.19;5033772;28;20036;-70
2021/01/11 06:48:36;;;;;;;14.00;8.40;;;;;;;-1.39;72.52;101189.59;5040940;28;20036;-70
2021/01/11 06:51:10;;;;;;;15.23;8.37;;;;;;;-1.37;72.05;101191.44;5041187;28;20128;-70
2021/01/11 06:53:38;;;;;;;16.57;8.80;;;;;;;-1.30;72.69;101191.78;5040020;28;20037;-71
2021/01/11 06:56:06;;;;;;;15.57;9.07;;;;;;;-1.28;71.69;101192.72;5041628;28;20064;-70
2021/01/11 06:58:33;;;;;;;13.20;7.30;;;;;;;-1.25;71.03;101185.16;5043782;28;20087;-71
2021/01/11 07:01:11;;;;;;;16.33;8.67;;;;;;;-1.28;72.05;101187.53;5041615;28;20044;-71
2021/01/11 07:03:48;;;;;;;16.40;9.33;;;;;;;-1.30;71.57;101186.59;5040077;28;20044;-70
2021/01/11 07:06:45;;;;;;;14.23;8.37;;;;;;;-1.23;71.90;101183.50;5032864;28;20453;-71
2021/01/11 07:09:19;;;;;;;14.07;8.47;;;;;;;-1.13;71.87;101178.91;5038854;28;20057;-71
2021/01/11 07:11:47;;;;;;;14.73;8.30;;;;;;;-1.06;71.46;101179.19;5039177;28;20061;-70
2021/01/11 07:14:14;;;;;;;12.63;8.00;;;;;;;-1.13;70.75;101186.66;5043345;28;20055;-71
2021/01/11 07:16:49;;;;;;;15.93;8.00;;;;;;;-1.20;70.79;101187.16;5043522;28;20040;-71
2021/01/11 07:19:20;;;;;;;15.37;9.13;;;;;;;-1.20;70.76;101186.28;5032729;28;20534;-71
2021/01/11 07:21:47;;;;;;;12.83;8.47;;;;;;;-1.20;70.98;101181.97;5040307;28;20091;-71
2021/01/11 07:24:13;;;;;;;13.93;8.43;;;;;;;-1.25;71.10;101177.38;5043022;28;20450;-71
2021/01/11 07:26:39;;;;;;;17.17;9.97;;;;;;;-1.21;71.39;101176.69;5043347;28;20033;-70
2021/01/11 07:29:12;;;;;;;13.27;7.53;;;;;;;-1.21;70.78;101176.69;5030638;28;20128;-71
2021/01/11 07:31:40;;;;;;;12.57;7.73;;;;;;;-1.19;71.00;101180.28;5029958;28;20037;-70
2021/01/11 07:34:08;;;;;;;13.70;8.67;;;;;;;-1.25;70.68;101175.66;5035237;28;20479;-70
2021/01/11 07:36:42;;;;;;;15.50;8.93;;;;;;;-1.25;70.55;101173.06;5032686;28;20480;-70
2021/01/11 07:39:22;;;;;;;15.20;8.80;;;;;;;-1.25;71.21;101174.78;5037523;28;20462;-70
2021/01/11 07:41:54;;;;;;;13.37;7.90;;;;;;;-1.19;70.78;101170.78;5033655;28;20053;-70
2021/01/11 07:44:25;;;;;;;14.10;8.35;;;;;;;-1.17;70.12;101169.19;5031296;28;20120;-70
2021/01/11 07:47:03;;;;;;;13.60;8.33;;;;;;;-1.24;70.99;101163.59;5029742;28;20033;-71
2021/01/11 07:49:33;;;;;;;14.70;8.47;;;;;;;-1.29;71.45;101170.25;5033556;28;20034;-71
2021/01/11 07:52:04;;;;;;;18.50;9.63;;;;;;;-1.26;71.43;101160.03;5034544;28;20072;-71
2021/01/11 07:54:30;;;;;;;16.53;9.23;;;;;;;-1.23;70.77;101161.09;5030873;28;20037;-71
2021/01/11 07:56:56;;;;;;;16.07;8.43;;;;;;;-1.19;70.96;101167.31;5032322;28;20045;-71
2021/01/11 07:59:22;;;;;;;17.27;9.73;;;;;;;-1.19;70.14;101173.38;5033792;28;20112;-71
2021/01/11 08:01:48;;;;;;;16.80;8.97;;;;;;;-1.17;70.32;101171.78;5040057;28;20140;-71
2021/01/11 08:04:15;;;;;;;15.27;8.30;;;;;;;-1.09;70.39;101174.75;5042543;28;20049;-71
2021/01/11 08:06:47;;;;;;;14.70;7.93;;;;;;;-1.17;69.55;101174.34;5042863;28;20036;-71
2021/01/11 08:09:13;;;;;;;14.02;7.43;;;;;;;-1.05;70.28;101179.25;5031823;28;20506;-71
2021/01/11 08:11:39;;;;;;;12.07;7.63;;;;;;;-1.00;70.02;101176.91;5039209;28;20136;-72
2021/01/11 08:14:05;;;;;;;11.70;7.33;;;;;;;-0.95;69.66;101172.84;5041963;28;20150;-72
2021/01/11 08:16:32;;;;;;;14.17;8.17;;;;;;;-0.94;69.98;101178.13;5041618;28;20541;-72
2021/01/11 08:19:06;;;;;;;13.73;8.57;;;;;;;-0.89;69.24;101170.59;5044618;28;20033;-72
2021/01/11 08:21:32;;;;;;;13.57;7.93;;;;;;;-0.85;69.32;101174.22;5042675;28;20590;-72
2021/01/11 08:24:05;;;;;;;12.87;7.27;;;;;;;-0.90;69.10;101172.25;5040419;28;20048;-72
2021/01/11 08:26:34;;;;;;;13.17;7.97;;;;;;;-0.80;68.70;101172.75;5039281;28;20033;-72
2021/01/11 08:29:00;;;;;;;14.83;8.50;;;;;;;-0.75;69.61;101164.38;5041425;28;20037;-72
2021/01/11 08:31:27;;;;;;;13.00;7.87;;;;;;;-0.63;69.56;101165.78;5041335;28;20105;-72
2021/01/11 08:33:53;;;;;;;13.83;8.50;;;;;;;-0.60;68.80;101159.06;5041031;28;20033;-72
2021/01/11 08:36:21;;;;;;;13.13;7.90;;;;;;;-0.61;68.85;101157.28;5039034;28;20033;-72
2021/01/11 08:39:10;;;;;;;16.57;9.30;;;;;;;-0.58;68.92;101149.63;5039443;28;20381;-72
2021/01/11 08:41:49;;;;;;;12.60;7.67;;;;;;;-0.55;68.87;101157.59;5041356;28;20461;-72
2021/01/11 08:44:29;;;;;;;13.03;7.03;;;;;;;-0.50;69.02;101162.97;5031575;28;20033;-72
2021/01/11 08:47:02;;;;;;;12.30;7.50;;;;;;;-0.41;68.06;101158.25;5040474;28;20037;-73
2021/01/11 08:49:28;;;;;;;13.27;8.00;;;;;;;-0.41;67.94;101158.25;5042319;28;20045;-72
2021/01/11 08:52:05;;;;;;;14.43;8.33;;;;;;;-0.39;68.41;101155.72;5040913;28;20040;-72
2021/01/11 08:54:31;;;;;;;13.43;8.17;;;;;;;-0.33;68.53;101158.63;5041144;28;20048;-72
2021/01/11 08:56:58;;;;;;;12.83;8.43;;;;;;;-0.33;68.18;101156.03;5044514;28;20026;-72
2021/01/11 08:59:24;;;;;;;12.03;7.23;;;;;;;-0.30;68.23;101143.19;5046009;28;20505;-72
2021/01/11 09:01:50;;;;;;;14.50;8.47;;;;;;;-0.29;68.49;101157.94;5045043;28;20032;-72
2021/01/11 09:04:30;;;;;;;13.67;7.87;;;;;;;-0.28;66.89;101154.53;5042158;28;20052;-72
2021/01/11 09:07:06;;;;;;;14.10;8.03;;;;;;;-0.25;67.88;101160.75;5044300;28;20376;-72
2021/01/11 09:09:33;;;;;;;13.50;7.57;;;;;;;-0.23;67.98;101160.84;5045926;28;20033;-72
2021/01/11 09:12:03;;;;;;;11.60;7.80;;;;;;;-0.21;67.22;101164.38;5043648;28;20078;-72
2021/01/11 09:14:31;;;;;;;13.10;7.70;;;;;;;-0.10;67.62;101183.94;5042188;28;20105;-72
2021/01/11 09:16:59;;;;;;;12.63;7.43;;;;;;;0.03;68.02;101190.59;5044236;28;20376;-72
2021/01/11 09:19:24;;;;;;;14.30;9.23;;;;;;;0.17;67.22;101191.25;5045651;28;20128;-72
2021/01/11 09:22:17;;;;;;;12.33;7.80;;;;;;;0.24;66.56;101192.41;5044652;28;20098;-72
2021/01/11 09:24:43;;;;;;;16.70;9.07;;;;;;;0.18;66.53;101188.72;5042304;28;20045;-72
2021/01/11 09:27:10;;;;;;;13.60;8.00;;;;;;;0.34;66.85;101190.31;5033982;28;20063;-72
2021/01/11 09:29:37;;;;;;;15.97;8.47;;;;;;;0.37;66.67;101182.66;5042166;28;20496;-72
2021/01/11 09:32:03;;;;;;;19.80;10.77;;;;;;;0.55;68.80;101179.09;5043452;28;20037;-72
2021/01/11 09:34:28;;;;;;;20.13;10.63;;;;;;;0.75;68.40;101180.00;5045223;28;20045;-72
2021/01/11 09:36:54;;;;;;;19.50;10.70;;;;;;;0.79;67.76;101182.81;5043879;28;20041;-72
2021/01/11 09:39:19;;;;;;;19.50;10.93;;;;;;;0.85;67.18;101180.47;5041850;28;20088;-72
2021/01/11 09:41:50;;;;;;;20.33;11.77;;;;;;;0.92;66.46;101181.63;5042040;28;20037;-72
2021/01/11 09:44:16;;;;;;;22.17;11.73;;;;;;;1.07;66.47;101176.16;5030500;28;20504;-72
2021/01/11 09:46:46;;;;;;;14.30;8.40;;;;;;;1.20;64.96;101180.19;5034659;28;20120;-72
2021/01/11 09:49:12;;;;;;;17.57;9.93;;;;;;;1.24;65.15;101187.31;5032048;28;20072;-72
2021/01/11 09:51:37;;;;;;;16.57;9.47;;;;;;;1.27;64.10;101184.81;5039746;28;20034;-72
2021/01/11 09:54:04;;;;;;;12.77;7.87;;;;;;;1.17;62.89;101180.94;5042105;28;20102;-72
2021/01/11 09:56:30;;;;;;;13.80;8.40;;;;;;;1.24;64.01;101190.78;5043085;28;20041;-72
2021/01/11 09:58:55;;;;;;;12.17;7.67;;;;;;;1.33;63.02;101194.59;5041496;28;20055;-72
2021/01/11 10:01:21;;;;;;;12.07;8.23;;;;;;;1.30;62.82;101198.84;5028050;28;20029;-71
2021/01/11 10:03:48;;;;;;;13.90;8.47;;;;;;;1.44;63.45;101180.31;5034391;28;20033;-72
2021/01/11 10:06:13;;;;;;;12.97;7.90;;;;;;;1.64;63.27;101175.94;5040048;28;20095;-72
2021/01/11 10:08:39;;;;;;;12.67;8.40;;;;;;;1.64;62.87;101178.53;5042186;28;20446;-72
2021/01/11 10:11:14;;;;;;;13.45;7.97;;;;;;;1.69;62.54;101175.28;5034712;28;20036;-72
2021/01/11 10:13:40;;;;;;;15.30;8.60;;;;;;;1.67;62.33;101171.72;5039695;28;20026;-72
2021/01/11 10:16:05;;;;;;;13.80;8.30;;;;;;;1.70;61.81;101164.06;5038559;28;20510;-72
2021/01/11 10:18:31;;;;;;;15.65;8.57;;;;;;;1.69;62.27;101164.00;5044499;28;20110;-72
2021/01/11 10:20:56;;;;;;;14.00;8.07;;;;;;;1.71;61.23;101160.63;5043245;28;20063;-72
2021/01/11 10:23:21;;;;;;;14.70;8.77;;;;;;;1.72;61.74;101158.91;5042911;28;20088;-72
2021/01/11 10:25:47;;;;;;;12.00;7.70;;;;;;;1.71;60.58;101158.03;5041695;28;20056;-72
2021/01/11 10:28:12;;;;;;;10.88;6.85;;;;;;;1.84;61.69;101148.09;5043162;28;20458;-72
2021/01/11 10:30:37;;;;;;;13.63;8.10;;;;;;;1.99;62.30;101143.47;5044344;28;20483;-72
2021/01/11 10:33:03;;;;;;;13.68;8.10;;;;;;;2.01;61.59;101130.53;5041132;28;20415;-72
2021/01/11 10:35:28;;;;;;;14.27;8.90;;;;;;;1.95;61.54;101131.19;5040772;28;20067;-72
2021/01/11 10:37:53;;;;;;;11.23;7.20;;;;;;;2.02;61.36;101132.28;5042332;28;20415;-72
2021/01/11 10:40:19;;;;;;;13.03;8.30;;;;;;;2.03;61.30;101121.94;5044256;28;20047;-72
2021/01/11 10:42:47;;;;;;;11.55;7.68;;;;;;;2.08;61.61;101117.78;5043823;28;20107;-72
2021/01/11 10:45:13;;;;;;;11.90;7.57;;;;;;;2.12;61.95;101114.47;5040604;28;20033;-72
2021/01/11 10:47:38;;;;;;;12.77;7.80;;;;;;;2.14;61.36;101115.41;5040446;28;20099;-72
2021/01/11 10:50:04;;;;;;;11.20;7.47;;;;;;;2.11;61.01;101114.41;5043337;28;20076;-72
2021/01/11 10:52:29;;;;;;;9.85;6.70;;;;;;;2.08;60.93;101117.78;5043614;28;20132;-72
2021/01/11 10:54:54;;;;;;;12.80;8.32;;;;;;;1.97;61.00;101116.50;5042304;28;20040;-72
2021/01/11 10:57:19;;;;;;;12.95;8.23;;;;;;;2.09;61.66;101114.34;5039112;28;20041;-72
2021/01/11 10:59:45;;;;;;;11.18;7.40;;;;;;;2.16;61.13;101111.16;5048568;28;20064;-72
2021/01/11 11:02:10;;;;;;;13.25;8.55;;;;;;;2.25;60.59;101105.38;5058007;28;20084;-72
2021/01/11 11:04:36;;;;;;;12.02;8.05;;;;;;;2.32;60.79;101096.09;5043493;28;20020;-72
2021/01/11 11:07:01;;;;;;;12.27;7.55;;;;;;;2.36;60.37;101098.00;5041279;28;20403;-72
2021/01/11 11:09:27;;;;;;;14.25;8.65;;;;;;;2.43;60.47;101102.56;5042637;28;20492;-71
2021/01/11 11:11:52;;;;;;;12.70;7.80;;;;;;;2.50;60.34;101081.13;5044113;28;20120;-72
2021/01/11 11:14:18;;;;;;;12.30;8.00;;;;;;;2.52;59.96;101089.00;5043325;28;20094;-72
2021/01/11 11:16:43;;;;;;;12.80;8.25;;;;;;;2.52;60.92;101089.88;5036264;28;20037;-72
2021/01/11 11:19:09;;;;;;;13.07;8.07;;;;;;;2.57;60.63;101085.72;5031945;28;20037;-72
2021/01/11 11:21:34;;;;;;;11.32;7.15;;;;;;;2.32;59.08;101085.66;5038848;28;20044;-71